EPPOEPKT

Guest
Details From EPPO - LAWICA
To EPKT - PYRZOWICE
Flight Number -
Tags generated
Created
Modified
Stats Distance 144 nm / 267 km
Max Altitude 17,200 ft / 5,243 m
Waypoints 3
Social Downloads 0
Likes 0
Share VATSIM

Download

Looking for another format? Having issues loading an existing format? Contact us
Advertisement - Login to hide

Notes

Basic altitude profile: - Ascent Rate: 2500ft/min - Ascent Speed: 250kts - Cruise Altitude: 35000ft - Cruise Speed: 420kts - Descent Rate: 1500ft/min - Descent Speed: 250kts

Route

EPPO BADNO EPKT

ID Type Via Altitude Latitude Longitude Leg Dist Tot Dist Heading (true) Name
O EPPO APT - 0 ft / 0 m 52.42157˚ 16.82355˚ - 0 nm - LAWICA
BADNO FIX - 17,200 ft / 5,243 m 51.75000˚ 17.67833˚ 51 nm 51 nm 142° / 142° -
O EPKT APT - 0 ft / 0 m 50.47426˚ 19.07436˚ 92 nm 144 nm 145° / 146° PYRZOWICE

Altitude Profile

Advertisement - Login to hide

EPPO

Details ICAO EPPO (POZ)
Name LAWICA
Region Poland
Timezone Europe/Warsaw (UTC+1.0)
Stats Elevation 308 ft / 94 m (AMSL)
Location 52.421566° 16.823549°
Runways 1
Magnetic Variation 4.737° E

METAR

EPPO 180130Z VRB02KT 3500 BR OVC036 M02/M02 Q1023 R10/290095

Decode

TAF

TAF EPPO 172330Z 1800/1824 VRB02KT 2500 BR SCT025 TEMPO 1800/1810 0500 FZFG BKN002

Decode

Departure Runways

ID Width Length Bearing (true) Bearing (mag) Surface Threshold Offset Overrun Length
11 164 ft / 50 m 8,153 ft / 2,485 m 107.57° 102.83° Asphalt 0 ft / 0 m 0 ft / 0 m
29 164 ft / 50 m 8,153 ft / 2,485 m 287.59° 282.85° Asphalt 0 ft / 0 m 0 ft / 0 m

EPKT

Details ICAO EPKT (KTW)
Name PYRZOWICE
Region Poland
Timezone Europe/Warsaw (UTC+1.0)
Stats Elevation 995 ft / 303 m (AMSL)
Location 50.474263° 19.074356°
Runways 1
Magnetic Variation 5.086° E

METAR

EPKT 180130Z 33001KT 1000 0500NE R27/1900N BCFG BR NSC M01/M02 Q1021

Decode

TAF

TAF EPKT 172330Z 1800/1824 VRB02KT 1200 BR BKN020 TEMPO 1800/1807 0500 FZFG BKN008 PROB40 TEMPO 1800/1807 0200 FZFG BKN002 BECMG 1808/1811 7000 BECMG 1815/1817 2000 BR

Decode

Destination Runways

ID Width Length Bearing (true) Bearing (mag) Surface Threshold Offset Overrun Length
09 195 ft / 59 m 9,156 ft / 2,791 m 90.18° 85.09° Concrete 0 ft / 0 m 0 ft / 0 m
27 195 ft / 59 m 9,156 ft / 2,791 m 270.22° 265.13° Concrete 0 ft / 0 m 0 ft / 0 m

Approach Navaids

Runway Type Ident Frequency Range Bearing (true) Bearing (mag) Slope Elevation
27 Localiser KAT 109.90 MHz 18 nm / 33 km 270.18° 265.09° - 995 ft / 303 m (AMSL)
27 Glidescope KAT 109.90 MHz 10 nm / 19 km 270.20° 265.11° 3.20° 995 ft / 303 m (AMSL)

Popular Alternatives